sensor_id;sensor_type;location;lat;lon;timestamp;P1;durP1;ratioP1;P2;durP2;ratioP2
60935;SDS011;46804;51.786;19.520;2024-02-23T00:01:47;13.65;;;6.97;;
60935;SDS011;46804;51.786;19.520;2024-02-23T00:05:48;14.68;;;7.43;;
60935;SDS011;46804;51.786;19.520;2024-02-23T00:09:49;14.73;;;7.60;;
60935;SDS011;46804;51.786;19.520;2024-02-23T00:13:50;14.68;;;6.40;;
60935;SDS011;46804;51.786;19.520;2024-02-23T00:17:50;12.02;;;7.20;;
60935;SDS011;46804;51.786;19.520;2024-02-23T00:21:51;12.63;;;6.05;;
60935;SDS011;46804;51.786;19.520;2024-02-23T00:25:53;10.57;;;6.13;;
60935;SDS011;46804;51.786;19.520;2024-02-23T00:29:54;11.50;;;6.72;;
60935;SDS011;46804;51.786;19.520;2024-02-23T00:33:54;11.10;;;6.40;;
60935;SDS011;46804;51.786;19.520;2024-02-23T00:37:55;13.15;;;6.40;;
60935;SDS011;46804;51.786;19.520;2024-02-23T00:41:56;12.10;;;5.72;;
60935;SDS011;46804;51.786;19.520;2024-02-23T00:45:57;12.32;;;5.10;;
60935;SDS011;46804;51.786;19.520;2024-02-23T00:49:57;11.25;;;5.82;;
60935;SDS011;46804;51.786;19.520;2024-02-23T00:53:58;12.25;;;5.90;;
60935;SDS011;46804;51.786;19.520;2024-02-23T00:57:59;12.20;;;5.80;;
60935;SDS011;46804;51.786;19.520;2024-02-23T01:02:00;10.32;;;5.22;;
60935;SDS011;46804;51.786;19.520;2024-02-23T01:06:01;8.43;;;5.03;;
60935;SDS011;46804;51.786;19.520;2024-02-23T01:10:01;10.07;;;5.43;;
60935;SDS011;46804;51.786;19.520;2024-02-23T01:14:04;10.52;;;5.82;;
60935;SDS011;46804;51.786;19.520;2024-02-23T01:18:07;9.87;;;5.40;;
60935;SDS011;46804;51.786;19.520;2024-02-23T01:22:08;11.57;;;6.05;;
60935;SDS011;46804;51.786;19.520;2024-02-23T01:26:09;10.13;;;5.35;;
60935;SDS011;46804;51.786;19.520;2024-02-23T01:30:09;11.05;;;5.10;;
60935;SDS011;46804;51.786;19.520;2024-02-23T01:34:11;7.35;;;5.00;;
60935;SDS011;46804;51.786;19.520;2024-02-23T01:38:11;8.30;;;4.32;;
60935;SDS011;46804;51.786;19.520;2024-02-23T01:42:19;7.43;;;4.85;;
60935;SDS011;46804;51.786;19.520;2024-02-23T01:46:20;8.95;;;5.25;;
60935;SDS011;46804;51.786;19.520;2024-02-23T01:50:21;10.00;;;4.95;;
60935;SDS011;46804;51.786;19.520;2024-02-23T01:54:22;9.43;;;5.00;;
60935;SDS011;46804;51.786;19.520;2024-02-23T01:58:23;9.07;;;5.10;;
60935;SDS011;46804;51.786;19.520;2024-02-23T02:02:24;8.32;;;4.68;;
60935;SDS011;46804;51.786;19.520;2024-02-23T02:06:25;7.75;;;4.35;;
60935;SDS011;46804;51.786;19.520;2024-02-23T02:10:26;6.65;;;4.35;;
60935;SDS011;46804;51.786;19.520;2024-02-23T02:14:27;8.50;;;4.85;;
60935;SDS011;46804;51.786;19.520;2024-02-23T02:18:31;9.02;;;5.32;;
60935;SDS011;46804;51.786;19.520;2024-02-23T02:22:32;12.20;;;5.78;;
60935;SDS011;46804;51.786;19.520;2024-02-23T02:26:34;11.93;;;5.72;;
60935;SDS011;46804;51.786;19.520;2024-02-23T02:30:37;8.00;;;4.90;;
60935;SDS011;46804;51.786;19.520;2024-02-23T02:34:38;9.65;;;5.70;;
60935;SDS011;46804;51.786;19.520;2024-02-23T02:38:39;11.65;;;6.20;;
60935;SDS011;46804;51.786;19.520;2024-02-23T02:42:40;7.82;;;5.25;;
60935;SDS011;46804;51.786;19.520;2024-02-23T02:46:41;9.75;;;5.90;;
60935;SDS011;46804;51.786;19.520;2024-02-23T02:50:42;8.43;;;4.90;;
60935;SDS011;46804;51.786;19.520;2024-02-23T02:54:43;10.30;;;5.25;;
60935;SDS011;46804;51.786;19.520;2024-02-23T02:58:44;8.73;;;5.18;;
60935;SDS011;46804;51.786;19.520;2024-02-23T03:02:44;10.35;;;6.03;;
60935;SDS011;46804;51.786;19.520;2024-02-23T03:06:45;11.23;;;5.72;;
60935;SDS011;46804;51.786;19.520;2024-02-23T03:10:46;9.48;;;5.68;;
60935;SDS011;46804;51.786;19.520;2024-02-23T03:14:47;7.95;;;5.47;;
60935;SDS011;46804;51.786;19.520;2024-02-23T03:18:51;9.63;;;6.10;;
60935;SDS011;46804;51.786;19.520;2024-02-23T03:22:52;11.27;;;5.78;;
60935;SDS011;46804;51.786;19.520;2024-02-23T03:26:53;9.10;;;6.28;;
60935;SDS011;46804;51.786;19.520;2024-02-23T03:30:54;12.48;;;6.22;;
60935;SDS011;46804;51.786;19.520;2024-02-23T03:34:55;10.48;;;5.85;;
60935;SDS011;46804;51.786;19.520;2024-02-23T03:38:55;15.23;;;6.70;;
60935;SDS011;46804;51.786;19.520;2024-02-23T03:42:56;10.73;;;6.90;;
60935;SDS011;46804;51.786;19.520;2024-02-23T03:46:57;10.85;;;6.65;;
60935;SDS011;46804;51.786;19.520;2024-02-23T03:50:58;14.10;;;7.43;;
60935;SDS011;46804;51.786;19.520;2024-02-23T03:54:58;9.98;;;6.78;;
60935;SDS011;46804;51.786;19.520;2024-02-23T03:58:59;9.20;;;6.00;;
60935;SDS011;46804;51.786;19.520;2024-02-23T04:03:00;15.05;;;7.15;;
60935;SDS011;46804;51.786;19.520;2024-02-23T04:07:00;10.98;;;6.95;;
60935;SDS011;46804;51.786;19.520;2024-02-23T04:11:01;12.20;;;6.82;;
60935;SDS011;46804;51.786;19.520;2024-02-23T04:15:02;14.35;;;7.05;;
60935;SDS011;46804;51.786;19.520;2024-02-23T04:19:03;15.43;;;7.10;;
60935;SDS011;46804;51.786;19.520;2024-02-23T04:23:04;9.77;;;6.93;;
60935;SDS011;46804;51.786;19.520;2024-02-23T04:27:07;9.90;;;6.28;;
60935;SDS011;46804;51.786;19.520;2024-02-23T04:31:09;10.80;;;6.80;;
60935;SDS011;46804;51.786;19.520;2024-02-23T04:35:10;11.57;;;6.15;;
60935;SDS011;46804;51.786;19.520;2024-02-23T04:39:11;9.50;;;6.22;;
60935;SDS011;46804;51.786;19.520;2024-02-23T04:43:11;13.10;;;6.72;;
60935;SDS011;46804;51.786;19.520;2024-02-23T04:47:12;8.90;;;5.97;;
60935;SDS011;46804;51.786;19.520;2024-02-23T04:51:13;9.75;;;6.78;;
60935;SDS011;46804;51.786;19.520;2024-02-23T04:55:14;10.82;;;6.90;;
60935;SDS011;46804;51.786;19.520;2024-02-23T04:59:14;11.85;;;7.68;;
60935;SDS011;46804;51.786;19.520;2024-02-23T05:03:15;13.55;;;7.00;;
60935;SDS011;46804;51.786;19.520;2024-02-23T05:07:16;11.45;;;7.40;;
60935;SDS011;46804;51.786;19.520;2024-02-23T05:11:17;10.65;;;7.35;;
60935;SDS011;46804;51.786;19.520;2024-02-23T05:15:18;9.05;;;6.53;;
60935;SDS011;46804;51.786;19.520;2024-02-23T05:19:18;11.07;;;7.10;;
60935;SDS011;46804;51.786;19.520;2024-02-23T05:23:19;13.00;;;6.78;;
60935;SDS011;46804;51.786;19.520;2024-02-23T05:27:20;10.68;;;6.65;;
60935;SDS011;46804;51.786;19.520;2024-02-23T05:31:22;10.18;;;7.15;;
60935;SDS011;46804;51.786;19.520;2024-02-23T05:35:49;12.60;;;8.85;;
60935;SDS011;46804;51.786;19.520;2024-02-23T05:39:50;12.90;;;5.95;;
60935;SDS011;46804;51.786;19.520;2024-02-23T05:43:50;12.63;;;6.88;;
60935;SDS011;46804;51.786;19.520;2024-02-23T05:47:51;10.07;;;6.40;;
60935;SDS011;46804;51.786;19.520;2024-02-23T05:51:52;13.20;;;7.20;;
60935;SDS011;46804;51.786;19.520;2024-02-23T05:55:53;9.30;;;6.35;;
60935;SDS011;46804;51.786;19.520;2024-02-23T05:59:54;9.65;;;6.65;;
60935;SDS011;46804;51.786;19.520;2024-02-23T06:03:56;10.05;;;6.15;;
60935;SDS011;46804;51.786;19.520;2024-02-23T06:07:57;10.15;;;6.35;;
60935;SDS011;46804;51.786;19.520;2024-02-23T06:11:58;11.18;;;6.20;;
60935;SDS011;46804;51.786;19.520;2024-02-23T06:15:59;9.50;;;5.70;;
60935;SDS011;46804;51.786;19.520;2024-02-23T06:20:00;10.02;;;6.25;;
60935;SDS011;46804;51.786;19.520;2024-02-23T06:24:01;9.45;;;5.72;;
60935;SDS011;46804;51.786;19.520;2024-02-23T06:28:03;12.35;;;6.97;;
60935;SDS011;46804;51.786;19.520;2024-02-23T06:32:04;9.30;;;5.53;;
60935;SDS011;46804;51.786;19.520;2024-02-23T06:36:05;9.57;;;6.18;;
60935;SDS011;46804;51.786;19.520;2024-02-23T06:40:06;10.00;;;6.38;;
60935;SDS011;46804;51.786;19.520;2024-02-23T06:44:07;10.75;;;6.80;;
60935;SDS011;46804;51.786;19.520;2024-02-23T06:48:08;11.68;;;6.60;;
60935;SDS011;46804;51.786;19.520;2024-02-23T06:52:12;10.25;;;6.28;;
60935;SDS011;46804;51.786;19.520;2024-02-23T06:56:13;11.32;;;7.20;;
60935;SDS011;46804;51.786;19.520;2024-02-23T07:00:14;12.32;;;8.10;;
60935;SDS011;46804;51.786;19.520;2024-02-23T07:04:15;9.75;;;6.55;;
60935;SDS011;46804;51.786;19.520;2024-02-23T07:08:16;10.75;;;6.97;;
60935;SDS011;46804;51.786;19.520;2024-02-23T07:12:17;10.68;;;7.07;;
60935;SDS011;46804;51.786;19.520;2024-02-23T07:16:17;11.30;;;7.25;;
60935;SDS011;46804;51.786;19.520;2024-02-23T07:20:18;14.07;;;8.70;;
60935;SDS011;46804;51.786;19.520;2024-02-23T07:24:19;11.80;;;7.57;;
60935;SDS011;46804;51.786;19.520;2024-02-23T07:28:20;15.90;;;9.35;;
60935;SDS011;46804;51.786;19.520;2024-02-23T07:32:22;10.05;;;7.10;;
60935;SDS011;46804;51.786;19.520;2024-02-23T07:36:23;12.73;;;7.88;;
60935;SDS011;46804;51.786;19.520;2024-02-23T07:40:24;25.10;;;12.82;;
60935;SDS011;46804;51.786;19.520;2024-02-23T07:44:25;22.90;;;12.93;;
60935;SDS011;46804;51.786;19.520;2024-02-23T07:48:26;11.35;;;7.45;;
60935;SDS011;46804;51.786;19.520;2024-02-23T07:52:26;28.60;;;13.30;;
60935;SDS011;46804;51.786;19.520;2024-02-23T07:56:27;37.47;;;18.10;;
60935;SDS011;46804;51.786;19.520;2024-02-23T08:00:28;32.33;;;17.95;;
60935;SDS011;46804;51.786;19.520;2024-02-23T08:04:29;14.77;;;10.10;;
60935;SDS011;46804;51.786;19.520;2024-02-23T08:08:29;17.30;;;10.85;;
60935;SDS011;46804;51.786;19.520;2024-02-23T08:12:32;16.73;;;8.80;;
60935;SDS011;46804;51.786;19.520;2024-02-23T08:16:33;16.45;;;9.60;;
60935;SDS011;46804;51.786;19.520;2024-02-23T08:20:34;14.85;;;9.57;;
60935;SDS011;46804;51.786;19.520;2024-02-23T08:24:35;26.98;;;15.32;;
60935;SDS011;46804;51.786;19.520;2024-02-23T08:28:36;21.60;;;13.48;;
60935;SDS011;46804;51.786;19.520;2024-02-23T08:32:36;22.05;;;13.77;;
60935;SDS011;46804;51.786;19.520;2024-02-23T08:36:37;19.57;;;13.33;;
60935;SDS011;46804;51.786;19.520;2024-02-23T08:40:37;34.88;;;12.43;;
60935;SDS011;46804;51.786;19.520;2024-02-23T08:44:40;23.60;;;10.75;;
60935;SDS011;46804;51.786;19.520;2024-02-23T08:48:41;18.83;;;8.93;;
60935;SDS011;46804;51.786;19.520;2024-02-23T08:52:42;18.00;;;9.93;;
60935;SDS011;46804;51.786;19.520;2024-02-23T08:56:42;15.07;;;9.77;;
60935;SDS011;46804;51.786;19.520;2024-02-23T09:00:44;22.00;;;11.80;;
60935;SDS011;46804;51.786;19.520;2024-02-23T09:04:45;22.33;;;11.60;;
60935;SDS011;46804;51.786;19.520;2024-02-23T09:08:46;17.20;;;9.88;;
60935;SDS011;46804;51.786;19.520;2024-02-23T09:12:47;21.23;;;11.93;;
60935;SDS011;46804;51.786;19.520;2024-02-23T09:16:47;26.48;;;13.18;;
60935;SDS011;46804;51.786;19.520;2024-02-23T09:20:51;17.15;;;10.68;;
60935;SDS011;46804;51.786;19.520;2024-02-23T09:24:52;15.05;;;8.95;;
60935;SDS011;46804;51.786;19.520;2024-02-23T09:28:52;14.27;;;8.68;;
60935;SDS011;46804;51.786;19.520;2024-02-23T09:32:53;21.05;;;11.35;;
60935;SDS011;46804;51.786;19.520;2024-02-23T09:36:55;13.70;;;8.60;;
60935;SDS011;46804;51.786;19.520;2024-02-23T09:40:56;17.80;;;10.60;;
60935;SDS011;46804;51.786;19.520;2024-02-23T09:45:00;19.35;;;10.02;;
60935;SDS011;46804;51.786;19.520;2024-02-23T09:49:01;15.23;;;8.82;;
60935;SDS011;46804;51.786;19.520;2024-02-23T09:53:04;22.77;;;10.67;;
60935;SDS011;46804;51.786;19.520;2024-02-23T09:57:06;13.98;;;9.57;;
60935;SDS011;46804;51.786;19.520;2024-02-23T10:01:09;19.33;;;11.57;;
60935;SDS011;46804;51.786;19.520;2024-02-23T10:05:12;16.83;;;10.03;;
60935;SDS011;46804;51.786;19.520;2024-02-23T10:09:14;15.38;;;10.00;;
60935;SDS011;46804;51.786;19.520;2024-02-23T10:13:19;12.48;;;8.90;;
60935;SDS011;46804;51.786;19.520;2024-02-23T10:17:24;13.52;;;9.07;;
60935;SDS011;46804;51.786;19.520;2024-02-23T10:21:25;13.75;;;8.50;;
60935;SDS011;46804;51.786;19.520;2024-02-23T10:25:25;13.52;;;7.70;;
60935;SDS011;46804;51.786;19.520;2024-02-23T10:29:26;10.85;;;7.22;;
60935;SDS011;46804;51.786;19.520;2024-02-23T10:33:27;11.93;;;7.30;;
60935;SDS011;46804;51.786;19.520;2024-02-23T10:37:29;13.45;;;7.53;;
60935;SDS011;46804;51.786;19.520;2024-02-23T10:41:30;14.50;;;7.65;;
60935;SDS011;46804;51.786;19.520;2024-02-23T10:45:35;12.00;;;6.75;;
60935;SDS011;46804;51.786;19.520;2024-02-23T10:49:36;12.88;;;7.03;;
60935;SDS011;46804;51.786;19.520;2024-02-23T10:53:39;11.70;;;6.90;;
60935;SDS011;46804;51.786;19.520;2024-02-23T10:57:41;13.98;;;6.85;;
60935;SDS011;46804;51.786;19.520;2024-02-23T11:01:42;11.18;;;6.22;;
60935;SDS011;46804;51.786;19.520;2024-02-23T11:05:43;10.55;;;6.65;;
60935;SDS011;46804;51.786;19.520;2024-02-23T11:09:43;11.40;;;7.03;;
60935;SDS011;46804;51.786;19.520;2024-02-23T11:13:49;12.13;;;7.65;;
60935;SDS011;46804;51.786;19.520;2024-02-23T11:17:56;13.32;;;8.02;;
60935;SDS011;46804;51.786;19.520;2024-02-23T11:21:57;13.15;;;7.15;;
60935;SDS011;46804;51.786;19.520;2024-02-23T11:25:59;14.05;;;7.35;;
60935;SDS011;46804;51.786;19.520;2024-02-23T11:30:06;11.02;;;7.25;;
60935;SDS011;46804;51.786;19.520;2024-02-23T11:34:12;17.35;;;7.35;;
60935;SDS011;46804;51.786;19.520;2024-02-23T11:38:12;13.85;;;8.23;;
60935;SDS011;46804;51.786;19.520;2024-02-23T11:42:13;13.05;;;7.72;;
60935;SDS011;46804;51.786;19.520;2024-02-23T11:46:15;18.17;;;10.35;;
60935;SDS011;46804;51.786;19.520;2024-02-23T11:50:17;12.85;;;6.80;;
60935;SDS011;46804;51.786;19.520;2024-02-23T11:58:22;13.65;;;7.57;;
60935;SDS011;46804;51.786;19.520;2024-02-23T12:02:23;12.73;;;6.65;;
60935;SDS011;46804;51.786;19.520;2024-02-23T12:06:25;13.45;;;7.50;;
60935;SDS011;46804;51.786;19.520;2024-02-23T12:10:30;15.15;;;8.20;;
60935;SDS011;46804;51.786;19.520;2024-02-23T12:14:31;12.50;;;7.65;;
60935;SDS011;46804;51.786;19.520;2024-02-23T12:18:32;12.57;;;7.97;;
60935;SDS011;46804;51.786;19.520;2024-02-23T12:22:34;20.67;;;10.15;;
60935;SDS011;46804;51.786;19.520;2024-02-23T12:26:34;17.95;;;10.70;;
60935;SDS011;46804;51.786;19.520;2024-02-23T12:30:35;15.70;;;8.25;;
60935;SDS011;46804;51.786;19.520;2024-02-23T12:34:36;14.13;;;7.50;;
60935;SDS011;46804;51.786;19.520;2024-02-23T12:38:36;15.82;;;8.05;;
60935;SDS011;46804;51.786;19.520;2024-02-23T12:42:37;12.48;;;7.30;;
60935;SDS011;46804;51.786;19.520;2024-02-23T12:46:39;18.10;;;8.80;;
60935;SDS011;46804;51.786;19.520;2024-02-23T12:50:40;40.33;;;14.77;;
60935;SDS011;46804;51.786;19.520;2024-02-23T12:54:40;40.30;;;14.50;;
60935;SDS011;46804;51.786;19.520;2024-02-23T12:58:42;12.27;;;7.70;;
60935;SDS011;46804;51.786;19.520;2024-02-23T13:02:44;15.27;;;7.40;;
60935;SDS011;46804;51.786;19.520;2024-02-23T13:06:45;75.80;;;27.05;;
60935;SDS011;46804;51.786;19.520;2024-02-23T13:10:47;14.93;;;8.05;;
60935;SDS011;46804;51.786;19.520;2024-02-23T13:14:48;11.73;;;7.32;;
60935;SDS011;46804;51.786;19.520;2024-02-23T13:18:49;19.52;;;9.07;;
60935;SDS011;46804;51.786;19.520;2024-02-23T13:22:49;11.33;;;7.40;;
60935;SDS011;46804;51.786;19.520;2024-02-23T13:26:50;15.70;;;8.00;;
60935;SDS011;46804;51.786;19.520;2024-02-23T13:30:51;13.43;;;7.45;;
60935;SDS011;46804;51.786;19.520;2024-02-23T13:34:52;14.48;;;8.73;;
60935;SDS011;46804;51.786;19.520;2024-02-23T13:38:53;27.20;;;10.82;;
60935;SDS011;46804;51.786;19.520;2024-02-23T13:42:54;17.50;;;9.27;;
60935;SDS011;46804;51.786;19.520;2024-02-23T13:46:55;29.58;;;12.77;;
60935;SDS011;46804;51.786;19.520;2024-02-23T13:50:56;65.63;;;22.02;;
60935;SDS011;46804;51.786;19.520;2024-02-23T13:54:57;22.73;;;10.35;;
60935;SDS011;46804;51.786;19.520;2024-02-23T13:58:58;17.20;;;10.00;;
60935;SDS011;46804;51.786;19.520;2024-02-23T14:02:59;16.83;;;9.52;;
60935;SDS011;46804;51.786;19.520;2024-02-23T14:07:00;18.95;;;11.50;;
60935;SDS011;46804;51.786;19.520;2024-02-23T14:11:01;20.08;;;11.48;;
60935;SDS011;46804;51.786;19.520;2024-02-23T14:15:02;19.05;;;10.30;;
60935;SDS011;46804;51.786;19.520;2024-02-23T14:19:03;19.70;;;11.65;;
60935;SDS011;46804;51.786;19.520;2024-02-23T14:23:04;24.23;;;13.20;;
60935;SDS011;46804;51.786;19.520;2024-02-23T14:27:04;20.25;;;11.25;;
60935;SDS011;46804;51.786;19.520;2024-02-23T14:31:05;33.08;;;16.77;;
60935;SDS011;46804;51.786;19.520;2024-02-23T14:35:06;21.40;;;11.88;;
60935;SDS011;46804;51.786;19.520;2024-02-23T14:39:07;19.13;;;10.45;;
60935;SDS011;46804;51.786;19.520;2024-02-23T14:43:08;26.42;;;14.43;;
60935;SDS011;46804;51.786;19.520;2024-02-23T14:47:10;16.50;;;11.10;;
60935;SDS011;46804;51.786;19.520;2024-02-23T14:51:10;19.00;;;11.43;;
60935;SDS011;46804;51.786;19.520;2024-02-23T14:55:11;20.02;;;12.70;;
60935;SDS011;46804;51.786;19.520;2024-02-23T14:59:12;29.30;;;16.67;;
60935;SDS011;46804;51.786;19.520;2024-02-23T15:03:13;36.28;;;18.08;;
60935;SDS011;46804;51.786;19.520;2024-02-23T15:07:15;31.65;;;18.15;;
60935;SDS011;46804;51.786;19.520;2024-02-23T15:11:16;33.95;;;16.30;;
60935;SDS011;46804;51.786;19.520;2024-02-23T15:15:16;47.72;;;21.40;;
60935;SDS011;46804;51.786;19.520;2024-02-23T15:19:17;45.17;;;20.05;;
60935;SDS011;46804;51.786;19.520;2024-02-23T15:23:18;39.00;;;22.80;;
60935;SDS011;46804;51.786;19.520;2024-02-23T15:27:19;37.90;;;22.85;;
60935;SDS011;46804;51.786;19.520;2024-02-23T15:31:20;49.10;;;26.25;;
60935;SDS011;46804;51.786;19.520;2024-02-23T15:35:21;30.67;;;15.25;;
60935;SDS011;46804;51.786;19.520;2024-02-23T15:39:22;30.02;;;15.55;;
60935;SDS011;46804;51.786;19.520;2024-02-23T15:43:23;25.83;;;13.75;;
60935;SDS011;46804;51.786;19.520;2024-02-23T15:47:23;30.67;;;17.35;;
60935;SDS011;46804;51.786;19.520;2024-02-23T15:51:24;27.77;;;16.15;;
60935;SDS011;46804;51.786;19.520;2024-02-23T15:55:25;18.42;;;10.57;;
60935;SDS011;46804;51.786;19.520;2024-02-23T15:59:26;8.68;;;5.97;;
60935;SDS011;46804;51.786;19.520;2024-02-23T16:03:27;21.80;;;12.35;;
60935;SDS011;46804;51.786;19.520;2024-02-23T16:07:28;13.38;;;7.78;;
60935;SDS011;46804;51.786;19.520;2024-02-23T16:11:29;20.10;;;11.35;;
60935;SDS011;46804;51.786;19.520;2024-02-23T16:15:32;11.27;;;6.82;;
60935;SDS011;46804;51.786;19.520;2024-02-23T16:19:32;11.40;;;6.15;;
60935;SDS011;46804;51.786;19.520;2024-02-23T16:23:33;21.95;;;10.90;;
60935;SDS011;46804;51.786;19.520;2024-02-23T16:27:34;23.10;;;13.35;;
60935;SDS011;46804;51.786;19.520;2024-02-23T16:31:35;49.10;;;35.25;;
60935;SDS011;46804;51.786;19.520;2024-02-23T16:35:42;16.90;;;11.02;;
60935;SDS011;46804;51.786;19.520;2024-02-23T16:39:43;11.20;;;7.63;;
60935;SDS011;46804;51.786;19.520;2024-02-23T16:43:44;13.30;;;8.18;;
60935;SDS011;46804;51.786;19.520;2024-02-23T16:47:45;15.32;;;7.38;;
60935;SDS011;46804;51.786;19.520;2024-02-23T16:51:45;10.15;;;5.78;;
60935;SDS011;46804;51.786;19.520;2024-02-23T16:55:46;66.32;;;31.95;;
60935;SDS011;46804;51.786;19.520;2024-02-23T16:59:47;63.90;;;32.95;;
60935;SDS011;46804;51.786;19.520;2024-02-23T17:03:47;36.20;;;22.55;;
60935;SDS011;46804;51.786;19.520;2024-02-23T17:07:48;23.02;;;15.65;;
60935;SDS011;46804;51.786;19.520;2024-02-23T17:11:49;51.93;;;24.70;;
60935;SDS011;46804;51.786;19.520;2024-02-23T17:15:49;32.55;;;18.77;;
60935;SDS011;46804;51.786;19.520;2024-02-23T17:19:50;33.13;;;20.02;;
60935;SDS011;46804;51.786;19.520;2024-02-23T17:23:51;30.83;;;16.27;;
60935;SDS011;46804;51.786;19.520;2024-02-23T17:27:52;44.45;;;26.02;;
60935;SDS011;46804;51.786;19.520;2024-02-23T17:31:53;31.30;;;15.65;;
60935;SDS011;46804;51.786;19.520;2024-02-23T17:35:54;26.25;;;14.85;;
60935;SDS011;46804;51.786;19.520;2024-02-23T17:39:55;36.42;;;21.10;;
60935;SDS011;46804;51.786;19.520;2024-02-23T17:43:57;54.50;;;30.95;;
60935;SDS011;46804;51.786;19.520;2024-02-23T17:47:57;42.55;;;23.20;;
60935;SDS011;46804;51.786;19.520;2024-02-23T17:51:58;35.80;;;20.45;;
60935;SDS011;46804;51.786;19.520;2024-02-23T17:55:59;28.63;;;15.45;;
60935;SDS011;46804;51.786;19.520;2024-02-23T18:00:00;32.47;;;15.93;;
60935;SDS011;46804;51.786;19.520;2024-02-23T18:04:03;39.95;;;17.38;;
60935;SDS011;46804;51.786;19.520;2024-02-23T18:08:04;40.92;;;20.70;;
60935;SDS011;46804;51.786;19.520;2024-02-23T18:12:06;41.88;;;25.40;;
60935;SDS011;46804;51.786;19.520;2024-02-23T18:16:07;37.95;;;19.23;;
60935;SDS011;46804;51.786;19.520;2024-02-23T18:24:11;36.22;;;21.70;;
60935;SDS011;46804;51.786;19.520;2024-02-23T18:28:12;59.83;;;27.73;;
60935;SDS011;46804;51.786;19.520;2024-02-23T18:32:13;98.10;;;40.22;;
60935;SDS011;46804;51.786;19.520;2024-02-23T18:36:13;62.20;;;28.17;;
60935;SDS011;46804;51.786;19.520;2024-02-23T18:40:14;136.13;;;52.83;;
60935;SDS011;46804;51.786;19.520;2024-02-23T18:44:15;93.50;;;40.03;;
60935;SDS011;46804;51.786;19.520;2024-02-23T18:48:17;40.20;;;22.70;;
60935;SDS011;46804;51.786;19.520;2024-02-23T18:52:20;208.17;;;72.97;;
60935;SDS011;46804;51.786;19.520;2024-02-23T18:56:21;127.03;;;51.70;;
60935;SDS011;46804;51.786;19.520;2024-02-23T19:00:22;74.75;;;37.75;;
60935;SDS011;46804;51.786;19.520;2024-02-23T19:04:23;97.70;;;41.20;;
60935;SDS011;46804;51.786;19.520;2024-02-23T19:08:23;66.25;;;34.03;;
60935;SDS011;46804;51.786;19.520;2024-02-23T19:12:24;59.67;;;32.75;;
60935;SDS011;46804;51.786;19.520;2024-02-23T19:16:25;40.10;;;24.92;;
60935;SDS011;46804;51.786;19.520;2024-02-23T19:20:26;48.88;;;26.45;;
60935;SDS011;46804;51.786;19.520;2024-02-23T19:24:27;49.58;;;29.48;;
60935;SDS011;46804;51.786;19.520;2024-02-23T19:28:30;53.20;;;28.50;;
60935;SDS011;46804;51.786;19.520;2024-02-23T19:32:31;51.15;;;27.42;;
60935;SDS011;46804;51.786;19.520;2024-02-23T19:36:32;51.72;;;30.25;;
60935;SDS011;46804;51.786;19.520;2024-02-23T19:40:33;54.17;;;30.23;;
60935;SDS011;46804;51.786;19.520;2024-02-23T19:44:34;41.42;;;23.92;;
60935;SDS011;46804;51.786;19.520;2024-02-23T19:48:34;27.00;;;15.07;;
60935;SDS011;46804;51.786;19.520;2024-02-23T19:52:35;34.50;;;21.65;;
60935;SDS011;46804;51.786;19.520;2024-02-23T19:56:36;29.83;;;16.58;;
60935;SDS011;46804;51.786;19.520;2024-02-23T20:00:37;39.00;;;25.25;;
60935;SDS011;46804;51.786;19.520;2024-02-23T20:04:41;29.48;;;16.52;;
60935;SDS011;46804;51.786;19.520;2024-02-23T20:08:43;21.83;;;13.75;;
60935;SDS011;46804;51.786;19.520;2024-02-23T20:12:44;32.03;;;21.45;;
60935;SDS011;46804;51.786;19.520;2024-02-23T20:16:44;34.33;;;19.58;;
60935;SDS011;46804;51.786;19.520;2024-02-23T20:20:45;29.58;;;17.95;;
60935;SDS011;46804;51.786;19.520;2024-02-23T20:24:46;36.05;;;21.27;;
60935;SDS011;46804;51.786;19.520;2024-02-23T20:28:47;40.75;;;22.40;;
60935;SDS011;46804;51.786;19.520;2024-02-23T20:32:47;38.75;;;23.60;;
60935;SDS011;46804;51.786;19.520;2024-02-23T20:36:48;41.40;;;24.13;;
60935;SDS011;46804;51.786;19.520;2024-02-23T20:40:49;43.95;;;26.02;;
60935;SDS011;46804;51.786;19.520;2024-02-23T20:44:49;48.20;;;26.27;;
60935;SDS011;46804;51.786;19.520;2024-02-23T20:48:50;42.95;;;24.05;;
60935;SDS011;46804;51.786;19.520;2024-02-23T20:52:51;44.38;;;25.58;;
60935;SDS011;46804;51.786;19.520;2024-02-23T20:56:51;54.78;;;30.88;;
60935;SDS011;46804;51.786;19.520;2024-02-23T21:00:52;54.05;;;30.63;;
60935;SDS011;46804;51.786;19.520;2024-02-23T21:04:53;55.83;;;29.88;;
60935;SDS011;46804;51.786;19.520;2024-02-23T21:08:54;59.40;;;31.88;;
60935;SDS011;46804;51.786;19.520;2024-02-23T21:12:55;65.20;;;34.85;;
60935;SDS011;46804;51.786;19.520;2024-02-23T21:16:56;63.17;;;34.63;;
60935;SDS011;46804;51.786;19.520;2024-02-23T21:20:56;61.92;;;33.17;;
60935;SDS011;46804;51.786;19.520;2024-02-23T21:24:58;70.70;;;38.90;;
60935;SDS011;46804;51.786;19.520;2024-02-23T21:28:59;70.25;;;36.67;;
60935;SDS011;46804;51.786;19.520;2024-02-23T21:33:01;78.20;;;34.90;;
60935;SDS011;46804;51.786;19.520;2024-02-23T21:37:02;75.03;;;36.13;;
60935;SDS011;46804;51.786;19.520;2024-02-23T21:41:03;62.83;;;33.22;;
60935;SDS011;46804;51.786;19.520;2024-02-23T21:45:04;62.42;;;33.05;;
60935;SDS011;46804;51.786;19.520;2024-02-23T21:49:05;63.78;;;31.20;;
60935;SDS011;46804;51.786;19.520;2024-02-23T21:53:06;75.75;;;38.72;;
60935;SDS011;46804;51.786;19.520;2024-02-23T21:57:07;81.78;;;37.70;;
60935;SDS011;46804;51.786;19.520;2024-02-23T22:01:09;63.58;;;31.88;;
60935;SDS011;46804;51.786;19.520;2024-02-23T22:05:10;61.53;;;30.15;;
60935;SDS011;46804;51.786;19.520;2024-02-23T22:09:11;70.20;;;32.05;;
60935;SDS011;46804;51.786;19.520;2024-02-23T22:13:11;69.22;;;30.38;;
60935;SDS011;46804;51.786;19.520;2024-02-23T22:17:13;70.18;;;31.20;;
60935;SDS011;46804;51.786;19.520;2024-02-23T22:21:14;49.65;;;26.30;;
60935;SDS011;46804;51.786;19.520;2024-02-23T22:25:16;57.83;;;27.25;;
60935;SDS011;46804;51.786;19.520;2024-02-23T22:29:17;39.67;;;22.35;;
60935;SDS011;46804;51.786;19.520;2024-02-23T22:33:18;46.80;;;22.45;;
60935;SDS011;46804;51.786;19.520;2024-02-23T22:37:19;41.15;;;20.35;;
60935;SDS011;46804;51.786;19.520;2024-02-23T22:41:19;42.78;;;20.88;;
60935;SDS011;46804;51.786;19.520;2024-02-23T22:45:20;45.72;;;21.13;;
60935;SDS011;46804;51.786;19.520;2024-02-23T22:49:21;39.28;;;22.00;;
60935;SDS011;46804;51.786;19.520;2024-02-23T22:53:22;38.85;;;20.02;;
60935;SDS011;46804;51.786;19.520;2024-02-23T22:57:23;37.67;;;18.63;;
60935;SDS011;46804;51.786;19.520;2024-02-23T23:01:23;42.17;;;20.67;;
60935;SDS011;46804;51.786;19.520;2024-02-23T23:05:24;36.95;;;19.33;;
60935;SDS011;46804;51.786;19.520;2024-02-23T23:09:26;43.47;;;20.50;;
60935;SDS011;46804;51.786;19.520;2024-02-23T23:13:26;39.97;;;20.50;;
60935;SDS011;46804;51.786;19.520;2024-02-23T23:17:27;35.63;;;18.70;;
60935;SDS011;46804;51.786;19.520;2024-02-23T23:21:28;37.90;;;21.17;;
60935;SDS011;46804;51.786;19.520;2024-02-23T23:25:31;42.08;;;21.73;;
60935;SDS011;46804;51.786;19.520;2024-02-23T23:29:33;43.40;;;19.27;;